Terminal Aerodrome Forecast
Issued by NWS

Home | Current Version | Previous Version | Text Only | Print | Product List | Glossary Off
Versions: 1 2 3 4 5 6 7 8 9 10 11 12

450
FTUS43 KICT 030520
TAFRSL
TAF
KRSL 030520Z 0306/0406 15007KT P6SM BKN150
     FM031400 33007KT P6SM SCT150
     FM040000 26007KT P6SM SKC=

USA.gov is the U.S. government's official web portal to all federal, state and local government web resources and services.